sensor_id;sensor_type;location;lat;lon;timestamp;pressure;altitude;pressure_sealevel;temperature;humidity
11643;BME280;5877;50.930;6.918;2024-01-07T00:04:50;100920.19;;;6.71;72.46
11643;BME280;5877;50.930;6.918;2024-01-07T00:09:43;100921.16;;;6.55;72.68
11643;BME280;5877;50.930;6.918;2024-01-07T00:14:39;100901.28;;;6.54;72.38
11643;BME280;5877;50.930;6.918;2024-01-07T00:19:31;100893.81;;;6.51;72.18
11643;BME280;5877;50.930;6.918;2024-01-07T00:24:24;100876.28;;;6.60;71.63
11643;BME280;5877;50.930;6.918;2024-01-07T00:29:18;100939.09;;;6.88;71.57
11643;BME280;5877;50.930;6.918;2024-01-07T00:34:10;100921.81;;;6.72;71.25
11643;BME280;5877;50.930;6.918;2024-01-07T00:39:02;100910.81;;;6.62;71.69
11643;BME280;5877;50.930;6.918;2024-01-07T00:43:55;100940.25;;;6.70;71.50
11643;BME280;5877;50.930;6.918;2024-01-07T00:48:47;100899.84;;;6.66;70.63
11643;BME280;5877;50.930;6.918;2024-01-07T00:53:39;100942.78;;;6.78;70.74
11643;BME280;5877;50.930;6.918;2024-01-07T00:58:31;100949.06;;;6.84;70.78
11643;BME280;5877;50.930;6.918;2024-01-07T01:03:23;100871.25;;;6.58;70.06
11643;BME280;5877;50.930;6.918;2024-01-07T01:08:16;100891.38;;;6.49;70.66
11643;BME280;5877;50.930;6.918;2024-01-07T01:13:08;100950.53;;;6.87;70.73
11643;BME280;5877;50.930;6.918;2024-01-07T01:18:01;100954.47;;;6.82;70.61
11643;BME280;5877;50.930;6.918;2024-01-07T01:22:54;100935.13;;;6.77;70.24
11643;BME280;5877;50.930;6.918;2024-01-07T01:27:46;100973.84;;;7.03;69.82
11643;BME280;5877;50.930;6.918;2024-01-07T01:32:39;100968.78;;;7.01;70.23
11643;BME280;5877;50.930;6.918;2024-01-07T01:37:31;100969.78;;;7.00;69.90
11643;BME280;5877;50.930;6.918;2024-01-07T01:42:24;100972.34;;;6.71;70.25
11643;BME280;5877;50.930;6.918;2024-01-07T01:47:17;100980.28;;;6.77;70.58
11643;BME280;5877;50.930;6.918;2024-01-07T01:52:10;100979.28;;;6.78;70.33
11643;BME280;5877;50.930;6.918;2024-01-07T01:57:03;100918.56;;;6.55;70.05
11643;BME280;5877;50.930;6.918;2024-01-07T02:01:56;100982.16;;;6.69;70.48
11643;BME280;5877;50.930;6.918;2024-01-07T02:06:49;100844.91;;;5.78;70.33
11643;BME280;5877;50.930;6.918;2024-01-07T02:11:41;100993.13;;;6.64;70.17
11643;BME280;5877;50.930;6.918;2024-01-07T02:16:33;101001.25;;;6.46;71.04
11643;BME280;5877;50.930;6.918;2024-01-07T02:21:25;100949.69;;;6.34;70.49
11643;BME280;5877;50.930;6.918;2024-01-07T02:26:17;101013.25;;;6.93;69.71
11643;BME280;5877;50.930;6.918;2024-01-07T02:31:09;101013.66;;;6.82;69.77
11643;BME280;5877;50.930;6.918;2024-01-07T02:36:04;101014.91;;;6.71;70.08
11643;BME280;5877;50.930;6.918;2024-01-07T02:40:56;100943.78;;;5.94;70.14
11643;BME280;5877;50.930;6.918;2024-01-07T02:45:48;100997.69;;;6.62;69.56
11643;BME280;5877;50.930;6.918;2024-01-07T02:50:40;101021.53;;;6.59;69.93
11643;BME280;5877;50.930;6.918;2024-01-07T02:55:33;101011.50;;;6.48;69.90
11643;BME280;5877;50.930;6.918;2024-01-07T03:00:25;101018.91;;;6.59;69.50
11643;BME280;5877;50.930;6.918;2024-01-07T03:05:17;100876.50;;;5.75;69.39
11643;BME280;5877;50.930;6.918;2024-01-07T03:10:10;101041.41;;;6.60;70.06
11643;BME280;5877;50.930;6.918;2024-01-07T03:15:03;101044.19;;;6.36;70.90
11643;BME280;5877;50.930;6.918;2024-01-07T03:19:55;100998.94;;;6.06;71.27
11643;BME280;5877;50.930;6.918;2024-01-07T03:24:47;101039.84;;;6.51;70.93
11643;BME280;5877;50.930;6.918;2024-01-07T03:29:40;101044.47;;;6.41;71.62
11643;BME280;5877;50.930;6.918;2024-01-07T03:34:32;101053.72;;;6.21;72.66
11643;BME280;5877;50.930;6.918;2024-01-07T03:39:24;101005.69;;;5.84;72.88
11643;BME280;5877;50.930;6.918;2024-01-07T03:44:17;101052.88;;;6.28;71.78
11643;BME280;5877;50.930;6.918;2024-01-07T03:49:09;101061.63;;;6.04;72.82
11643;BME280;5877;50.930;6.918;2024-01-07T03:54:01;101039.78;;;5.66;73.59
11643;BME280;5877;50.930;6.918;2024-01-07T03:58:53;101061.03;;;5.86;73.26
11643;BME280;5877;50.930;6.918;2024-01-07T04:03:46;101065.09;;;5.97;73.74
11643;BME280;5877;50.930;6.918;2024-01-07T04:08:38;101062.63;;;6.03;72.75
11643;BME280;5877;50.930;6.918;2024-01-07T04:13:30;101067.44;;;5.75;73.75
11643;BME280;5877;50.930;6.918;2024-01-07T04:18:22;101069.56;;;5.72;73.93
11643;BME280;5877;50.930;6.918;2024-01-07T04:23:15;101080.69;;;6.05;72.99
11643;BME280;5877;50.930;6.918;2024-01-07T04:28:07;101071.75;;;5.99;72.61
11643;BME280;5877;50.930;6.918;2024-01-07T04:32:59;101085.75;;;5.98;72.97
11643;BME280;5877;50.930;6.918;2024-01-07T04:37:52;101085.81;;;5.82;72.60
11643;BME280;5877;50.930;6.918;2024-01-07T04:42:44;101095.06;;;5.84;73.24
11643;BME280;5877;50.930;6.918;2024-01-07T04:47:36;101097.47;;;6.02;72.21
11643;BME280;5877;50.930;6.918;2024-01-07T04:52:29;101098.16;;;5.88;72.91
11643;BME280;5877;50.930;6.918;2024-01-07T04:57:21;100966.69;;;4.98;73.45
11643;BME280;5877;50.930;6.918;2024-01-07T05:02:14;101108.91;;;5.93;73.33
11643;BME280;5877;50.930;6.918;2024-01-07T05:07:06;100995.44;;;4.96;73.60
11643;BME280;5877;50.930;6.918;2024-01-07T05:11:59;101131.59;;;5.68;73.37
11643;BME280;5877;50.930;6.918;2024-01-07T05:16:53;101116.09;;;5.91;73.32
11643;BME280;5877;50.930;6.918;2024-01-07T05:21:46;101103.13;;;5.59;73.33
11643;BME280;5877;50.930;6.918;2024-01-07T05:26:39;101132.38;;;5.77;74.36
11643;BME280;5877;50.930;6.918;2024-01-07T05:31:32;101136.94;;;5.75;73.58
11643;BME280;5877;50.930;6.918;2024-01-07T05:36:24;101126.72;;;5.65;73.21
11643;BME280;5877;50.930;6.918;2024-01-07T05:41:16;101128.34;;;5.66;73.13
11643;BME280;5877;50.930;6.918;2024-01-07T05:46:09;101098.97;;;5.25;72.40
11643;BME280;5877;50.930;6.918;2024-01-07T05:51:02;101145.75;;;5.58;72.83
11643;BME280;5877;50.930;6.918;2024-01-07T05:55:56;101145.50;;;5.20;73.19
11643;BME280;5877;50.930;6.918;2024-01-07T06:00:48;101166.59;;;5.58;72.20
11643;BME280;5877;50.930;6.918;2024-01-07T06:05:40;101169.81;;;5.76;71.50
11643;BME280;5877;50.930;6.918;2024-01-07T06:10:32;101172.59;;;5.66;71.58
11643;BME280;5877;50.930;6.918;2024-01-07T06:15:24;101173.72;;;5.80;71.59
11643;BME280;5877;50.930;6.918;2024-01-07T06:20:17;101169.81;;;5.76;71.41
11643;BME280;5877;50.930;6.918;2024-01-07T06:25:10;101199.94;;;5.95;71.24
11643;BME280;5877;50.930;6.918;2024-01-07T06:30:03;101206.28;;;5.76;70.77
11643;BME280;5877;50.930;6.918;2024-01-07T06:34:56;101195.41;;;5.40;71.35
11643;BME280;5877;50.930;6.918;2024-01-07T06:39:48;101222.88;;;5.83;70.92
11643;BME280;5877;50.930;6.918;2024-01-07T06:44:40;101227.13;;;5.68;70.78
11643;BME280;5877;50.930;6.918;2024-01-07T06:49:32;101221.44;;;5.40;70.47
11643;BME280;5877;50.930;6.918;2024-01-07T06:54:25;101061.13;;;4.49;70.25
11643;BME280;5877;50.930;6.918;2024-01-07T06:59:19;101195.91;;;4.95;71.18
11643;BME280;5877;50.930;6.918;2024-01-07T07:04:11;101254.47;;;5.39;70.02
11643;BME280;5877;50.930;6.918;2024-01-07T07:09:03;101261.94;;;5.42;70.20
11643;BME280;5877;50.930;6.918;2024-01-07T07:13:57;101251.84;;;5.07;70.88
11643;BME280;5877;50.930;6.918;2024-01-07T07:18:50;101261.78;;;5.28;70.67
11643;BME280;5877;50.930;6.918;2024-01-07T07:23:42;101265.84;;;5.14;70.59
11643;BME280;5877;50.930;6.918;2024-01-07T07:28:34;101267.97;;;5.35;70.75
11643;BME280;5877;50.930;6.918;2024-01-07T07:33:26;101280.50;;;5.47;68.88
11643;BME280;5877;50.930;6.918;2024-01-07T07:38:20;101227.31;;;5.09;68.37
11643;BME280;5877;50.930;6.918;2024-01-07T07:43:12;101291.88;;;5.38;68.74
11643;BME280;5877;50.930;6.918;2024-01-07T07:48:05;101321.66;;;5.36;68.63
11643;BME280;5877;50.930;6.918;2024-01-07T07:52:57;101242.50;;;4.72;69.14
11643;BME280;5877;50.930;6.918;2024-01-07T07:57:50;101333.19;;;5.25;68.83
11643;BME280;5877;50.930;6.918;2024-01-07T08:02:44;101320.00;;;5.27;68.63
11643;BME280;5877;50.930;6.918;2024-01-07T08:07:36;101304.59;;;5.49;67.94
11643;BME280;5877;50.930;6.918;2024-01-07T08:12:28;101332.09;;;5.60;67.88
11643;BME280;5877;50.930;6.918;2024-01-07T08:17:21;101339.22;;;5.42;67.99
11643;BME280;5877;50.930;6.918;2024-01-07T08:22:13;101357.09;;;5.29;69.57
11643;BME280;5877;50.930;6.918;2024-01-07T08:27:08;101359.69;;;5.29;69.51
11643;BME280;5877;50.930;6.918;2024-01-07T08:32:00;101359.88;;;5.19;69.09
11643;BME280;5877;50.930;6.918;2024-01-07T08:36:53;101377.97;;;5.53;68.93
11643;BME280;5877;50.930;6.918;2024-01-07T08:41:45;101397.19;;;5.52;69.08
11643;BME280;5877;50.930;6.918;2024-01-07T08:46:39;101401.69;;;5.34;69.37
11643;BME280;5877;50.930;6.918;2024-01-07T08:51:31;101409.47;;;5.17;69.57
11643;BME280;5877;50.930;6.918;2024-01-07T08:56:23;101402.78;;;5.23;69.90
11643;BME280;5877;50.930;6.918;2024-01-07T09:01:15;101371.47;;;4.91;70.09
11643;BME280;5877;50.930;6.918;2024-01-07T09:06:07;101423.22;;;5.52;69.81
11643;BME280;5877;50.930;6.918;2024-01-07T09:11:00;101422.06;;;4.96;70.69
11643;BME280;5877;50.930;6.918;2024-01-07T09:15:53;101404.78;;;5.37;69.72
11643;BME280;5877;50.930;6.918;2024-01-07T09:20:45;101423.78;;;5.30;70.70
11643;BME280;5877;50.930;6.918;2024-01-07T09:25:37;101419.41;;;5.30;70.14
11643;BME280;5877;50.930;6.918;2024-01-07T09:30:31;101443.59;;;5.65;69.58
11643;BME280;5877;50.930;6.918;2024-01-07T09:35:24;101450.00;;;4.94;69.48
11643;BME280;5877;50.930;6.918;2024-01-07T09:40:19;101460.00;;;5.07;69.99
11643;BME280;5877;50.930;6.918;2024-01-07T09:45:15;101422.25;;;4.77;69.22
11643;BME280;5877;50.930;6.918;2024-01-07T09:50:08;101449.78;;;4.62;69.45
11643;BME280;5877;50.930;6.918;2024-01-07T09:55:03;101475.34;;;5.18;68.04
11643;BME280;5877;50.930;6.918;2024-01-07T10:00:01;101465.34;;;5.05;67.97
11643;BME280;5877;50.930;6.918;2024-01-07T10:05:02;101347.44;;;4.37;66.93
11643;BME280;5877;50.930;6.918;2024-01-07T10:09:56;101437.09;;;4.84;66.68
11643;BME280;5877;50.930;6.918;2024-01-07T10:14:48;101474.09;;;5.38;67.17
11643;BME280;5877;50.930;6.918;2024-01-07T10:19:43;101462.47;;;5.67;66.91
11643;BME280;5877;50.930;6.918;2024-01-07T10:24:37;101479.94;;;5.82;66.57
11643;BME280;5877;50.930;6.918;2024-01-07T10:29:33;101453.72;;;5.26;67.17
11643;BME280;5877;50.930;6.918;2024-01-07T10:34:26;101478.41;;;5.21;67.50
11643;BME280;5877;50.930;6.918;2024-01-07T10:39:21;101443.22;;;4.75;68.03
11643;BME280;5877;50.930;6.918;2024-01-07T10:44:13;101485.84;;;5.42;66.41
11643;BME280;5877;50.930;6.918;2024-01-07T10:49:24;101483.06;;;5.44;65.78
11643;BME280;5877;50.930;6.918;2024-01-07T10:54:19;101504.69;;;5.36;66.23
11643;BME280;5877;50.930;6.918;2024-01-07T10:59:13;101509.06;;;5.70;63.56
11643;BME280;5877;50.930;6.918;2024-01-07T11:04:17;101496.41;;;5.83;62.88
11643;BME280;5877;50.930;6.918;2024-01-07T11:09:51;101505.44;;;6.13;62.69
11643;BME280;5877;50.930;6.918;2024-01-07T11:14:48;101434.66;;;5.17;62.64
11643;BME280;5877;50.930;6.918;2024-01-07T11:19:51;101514.41;;;5.68;62.58
11643;BME280;5877;50.930;6.918;2024-01-07T11:24:43;101522.19;;;6.02;61.38
11643;BME280;5877;50.930;6.918;2024-01-07T11:29:36;101467.31;;;5.53;61.16
11643;BME280;5877;50.930;6.918;2024-01-07T11:34:41;101521.38;;;5.94;61.22
11643;BME280;5877;50.930;6.918;2024-01-07T11:39:43;101512.28;;;5.64;62.31
11643;BME280;5877;50.930;6.918;2024-01-07T11:44:45;101526.13;;;5.64;61.94
11643;BME280;5877;50.930;6.918;2024-01-07T11:49:37;101522.84;;;5.20;62.29
11643;BME280;5877;50.930;6.918;2024-01-07T11:54:31;101443.78;;;4.61;63.00
11643;BME280;5877;50.930;6.918;2024-01-07T11:59:23;101541.78;;;5.04;62.38
11643;BME280;5877;50.930;6.918;2024-01-07T12:04:16;101531.56;;;4.67;63.36
11643;BME280;5877;50.930;6.918;2024-01-07T12:09:12;101531.81;;;5.00;63.55
11643;BME280;5877;50.930;6.918;2024-01-07T12:14:04;101531.66;;;4.57;63.18
11643;BME280;5877;50.930;6.918;2024-01-07T12:18:59;101553.00;;;5.05;62.53
11643;BME280;5877;50.930;6.918;2024-01-07T12:23:51;101536.09;;;4.83;62.67
11643;BME280;5877;50.930;6.918;2024-01-07T12:28:44;101500.59;;;4.74;61.61
11643;BME280;5877;50.930;6.918;2024-01-07T12:33:37;101558.94;;;5.23;62.21
11643;BME280;5877;50.930;6.918;2024-01-07T12:38:32;101560.78;;;5.31;61.50
11643;BME280;5877;50.930;6.918;2024-01-07T12:43:24;101530.03;;;5.00;61.28
11643;BME280;5877;50.930;6.918;2024-01-07T12:48:17;101487.13;;;5.38;59.76
11643;BME280;5877;50.930;6.918;2024-01-07T12:53:09;101407.50;;;4.34;60.35
11643;BME280;5877;50.930;6.918;2024-01-07T12:58:01;101558.91;;;5.49;59.91
11643;BME280;5877;50.930;6.918;2024-01-07T13:02:54;101583.97;;;5.16;60.28
11643;BME280;5877;50.930;6.918;2024-01-07T13:07:51;101592.72;;;4.71;60.71
11643;BME280;5877;50.930;6.918;2024-01-07T13:12:44;101557.94;;;4.54;60.67
11643;BME280;5877;50.930;6.918;2024-01-07T13:17:41;101585.72;;;4.72;60.87
11643;BME280;5877;50.930;6.918;2024-01-07T13:22:33;101601.72;;;4.59;60.50
11643;BME280;5877;50.930;6.918;2024-01-07T13:27:27;101602.13;;;4.37;60.48
11643;BME280;5877;50.930;6.918;2024-01-07T13:32:24;101603.84;;;4.81;59.99
11643;BME280;5877;50.930;6.918;2024-01-07T13:37:16;101591.66;;;4.46;60.04
11643;BME280;5877;50.930;6.918;2024-01-07T13:42:09;101442.16;;;3.26;58.97
11643;BME280;5877;50.930;6.918;2024-01-07T13:47:03;101609.19;;;4.44;58.57
11643;BME280;5877;50.930;6.918;2024-01-07T13:51:57;101583.16;;;4.09;58.67
11643;BME280;5877;50.930;6.918;2024-01-07T13:56:49;101641.50;;;4.42;59.07
11643;BME280;5877;50.930;6.918;2024-01-07T14:01:44;101647.63;;;4.23;58.99
11643;BME280;5877;50.930;6.918;2024-01-07T14:06:36;101628.75;;;3.56;59.27
11643;BME280;5877;50.930;6.918;2024-01-07T14:11:28;101668.25;;;3.97;58.61
11643;BME280;5877;50.930;6.918;2024-01-07T14:16:21;101671.25;;;3.46;60.59
11643;BME280;5877;50.930;6.918;2024-01-07T14:21:13;101683.22;;;3.66;59.40
11643;BME280;5877;50.930;6.918;2024-01-07T14:26:05;101696.25;;;3.37;59.66
11643;BME280;5877;50.930;6.918;2024-01-07T14:30:57;101706.31;;;2.73;60.58
11643;BME280;5877;50.930;6.918;2024-01-07T14:35:50;101723.53;;;3.03;59.49
11643;BME280;5877;50.930;6.918;2024-01-07T14:40:43;101720.53;;;2.98;58.36
11643;BME280;5877;50.930;6.918;2024-01-07T14:45:38;101724.63;;;3.10;57.29
11643;BME280;5877;50.930;6.918;2024-01-07T14:50:31;101738.53;;;2.89;56.74
11643;BME280;5877;50.930;6.918;2024-01-07T14:55:32;101747.25;;;2.79;56.57
11643;BME280;5877;50.930;6.918;2024-01-07T15:00:24;101757.53;;;3.09;55.97
11643;BME280;5877;50.930;6.918;2024-01-07T15:05:16;101756.16;;;3.05;55.16
11643;BME280;5877;50.930;6.918;2024-01-07T15:10:10;101779.81;;;3.31;55.46
11643;BME280;5877;50.930;6.918;2024-01-07T15:15:03;101781.66;;;2.90;55.92
11643;BME280;5877;50.930;6.918;2024-01-07T15:19:58;101757.78;;;2.87;54.51
11643;BME280;5877;50.930;6.918;2024-01-07T15:24:51;101791.81;;;3.13;53.84
11643;BME280;5877;50.930;6.918;2024-01-07T15:29:44;101801.00;;;2.77;54.71
11643;BME280;5877;50.930;6.918;2024-01-07T15:34:37;101801.06;;;2.96;53.84
11643;BME280;5877;50.930;6.918;2024-01-07T15:39:29;101732.06;;;2.65;53.08
11643;BME280;5877;50.930;6.918;2024-01-07T15:44:21;101730.34;;;2.35;54.15
11643;BME280;5877;50.930;6.918;2024-01-07T15:49:13;101820.22;;;2.74;54.08
11643;BME280;5877;50.930;6.918;2024-01-07T15:54:05;101843.00;;;2.71;53.73
11643;BME280;5877;50.930;6.918;2024-01-07T15:58:58;101853.19;;;2.63;53.38
11643;BME280;5877;50.930;6.918;2024-01-07T16:03:50;101860.50;;;2.48;54.16
11643;BME280;5877;50.930;6.918;2024-01-07T16:08:44;101841.13;;;2.82;53.51
11643;BME280;5877;50.930;6.918;2024-01-07T16:13:36;101870.78;;;2.59;54.17
11643;BME280;5877;50.930;6.918;2024-01-07T16:18:28;101884.22;;;2.74;53.39
11643;BME280;5877;50.930;6.918;2024-01-07T16:23:20;101759.41;;;1.66;52.99
11643;BME280;5877;50.930;6.918;2024-01-07T16:28:12;101884.28;;;2.93;52.09
11643;BME280;5877;50.930;6.918;2024-01-07T16:33:06;101818.13;;;2.07;52.55
11643;BME280;5877;50.930;6.918;2024-01-07T16:38:01;101886.94;;;2.72;52.15
11643;BME280;5877;50.930;6.918;2024-01-07T16:42:55;101818.69;;;2.32;52.24
11643;BME280;5877;50.930;6.918;2024-01-07T16:47:47;101898.88;;;2.54;52.94
11643;BME280;5877;50.930;6.918;2024-01-07T16:52:39;101904.38;;;2.70;52.66
11643;BME280;5877;50.930;6.918;2024-01-07T16:57:31;101876.03;;;2.78;52.27
11643;BME280;5877;50.930;6.918;2024-01-07T17:02:25;101884.56;;;2.90;52.19
11643;BME280;5877;50.930;6.918;2024-01-07T17:07:18;101888.56;;;3.04;52.38
11643;BME280;5877;50.930;6.918;2024-01-07T17:12:10;101932.50;;;3.36;51.76
11643;BME280;5877;50.930;6.918;2024-01-07T17:17:03;101945.88;;;3.01;52.10
11643;BME280;5877;50.930;6.918;2024-01-07T17:21:55;101942.28;;;3.22;52.08
11643;BME280;5877;50.930;6.918;2024-01-07T17:26:47;101944.91;;;2.71;52.42
11643;BME280;5877;50.930;6.918;2024-01-07T17:31:39;101924.81;;;2.64;51.97
11643;BME280;5877;50.930;6.918;2024-01-07T17:36:31;101953.06;;;2.87;51.91
11643;BME280;5877;50.930;6.918;2024-01-07T17:41:26;101952.41;;;2.95;52.17
11643;BME280;5877;50.930;6.918;2024-01-07T17:46:20;101975.38;;;3.30;51.04
11643;BME280;5877;50.930;6.918;2024-01-07T17:51:17;101873.88;;;2.83;51.62
11643;BME280;5877;50.930;6.918;2024-01-07T17:56:19;101951.34;;;2.98;51.73
11643;BME280;5877;50.930;6.918;2024-01-07T18:01:12;101972.75;;;2.48;52.29
11643;BME280;5877;50.930;6.918;2024-01-07T18:06:04;101878.56;;;2.59;51.49
11643;BME280;5877;50.930;6.918;2024-01-07T18:10:57;101954.94;;;2.85;51.28
11643;BME280;5877;50.930;6.918;2024-01-07T18:15:49;101966.25;;;3.36;50.88
11643;BME280;5877;50.930;6.918;2024-01-07T18:20:42;101972.25;;;2.54;51.55
11643;BME280;5877;50.930;6.918;2024-01-07T18:25:34;101974.13;;;2.73;51.42
11643;BME280;5877;50.930;6.918;2024-01-07T18:30:26;101962.31;;;3.11;50.75
11643;BME280;5877;50.930;6.918;2024-01-07T18:35:18;101960.66;;;2.79;49.75
11643;BME280;5877;50.930;6.918;2024-01-07T18:40:11;101984.28;;;2.86;50.12
11643;BME280;5877;50.930;6.918;2024-01-07T18:45:05;101983.41;;;2.97;50.08
11643;BME280;5877;50.930;6.918;2024-01-07T18:49:57;102009.38;;;3.27;49.77
11643;BME280;5877;50.930;6.918;2024-01-07T18:54:50;101995.47;;;2.66;50.10
11643;BME280;5877;50.930;6.918;2024-01-07T18:59:43;101990.56;;;2.63;50.42
11643;BME280;5877;50.930;6.918;2024-01-07T19:04:36;102012.31;;;2.92;50.54
11643;BME280;5877;50.930;6.918;2024-01-07T19:09:29;102014.06;;;3.12;50.38
11643;BME280;5877;50.930;6.918;2024-01-07T19:14:21;102012.53;;;3.31;49.23
11643;BME280;5877;50.930;6.918;2024-01-07T19:19:13;102017.44;;;2.82;50.08
11643;BME280;5877;50.930;6.918;2024-01-07T19:24:07;102023.44;;;3.04;49.56
11643;BME280;5877;50.930;6.918;2024-01-07T19:29:00;101954.53;;;3.11;49.31
11643;BME280;5877;50.930;6.918;2024-01-07T19:33:52;102024.22;;;3.25;49.61
11643;BME280;5877;50.930;6.918;2024-01-07T19:38:45;102033.59;;;3.37;50.14
11643;BME280;5877;50.930;6.918;2024-01-07T19:43:38;102024.09;;;3.26;49.96
11643;BME280;5877;50.930;6.918;2024-01-07T19:48:30;102026.22;;;3.12;50.33
11643;BME280;5877;50.930;6.918;2024-01-07T19:53:22;102034.75;;;3.03;50.11
11643;BME280;5877;50.930;6.918;2024-01-07T19:58:21;102041.97;;;3.20;50.36
11643;BME280;5877;50.930;6.918;2024-01-07T20:03:14;102035.47;;;3.35;50.10
11643;BME280;5877;50.930;6.918;2024-01-07T20:08:06;101965.78;;;2.70;50.29
11643;BME280;5877;50.930;6.918;2024-01-07T20:12:59;102031.09;;;3.05;50.31
11643;BME280;5877;50.930;6.918;2024-01-07T20:17:53;102031.53;;;2.89;51.28
11643;BME280;5877;50.930;6.918;2024-01-07T20:22:45;101954.88;;;2.97;51.03
11643;BME280;5877;50.930;6.918;2024-01-07T20:27:37;102040.13;;;2.90;52.34
11643;BME280;5877;50.930;6.918;2024-01-07T20:32:29;101950.59;;;2.23;52.68
11643;BME280;5877;50.930;6.918;2024-01-07T20:37:23;102033.13;;;2.28;53.97
11643;BME280;5877;50.930;6.918;2024-01-07T20:42:15;102003.38;;;2.64;52.59
11643;BME280;5877;50.930;6.918;2024-01-07T20:47:27;102054.19;;;2.87;52.55
11643;BME280;5877;50.930;6.918;2024-01-07T20:52:19;102053.59;;;2.63;52.72
11643;BME280;5877;50.930;6.918;2024-01-07T20:57:13;102019.84;;;2.53;52.96
11643;BME280;5877;50.930;6.918;2024-01-07T21:02:06;101993.09;;;1.78;53.96
11643;BME280;5877;50.930;6.918;2024-01-07T21:06:58;102066.91;;;2.26;54.07
11643;BME280;5877;50.930;6.918;2024-01-07T21:11:50;102012.78;;;1.47;54.48
11643;BME280;5877;50.930;6.918;2024-01-07T21:16:44;102026.75;;;1.78;53.92
11643;BME280;5877;50.930;6.918;2024-01-07T21:21:38;102058.28;;;1.94;53.33
11643;BME280;5877;50.930;6.918;2024-01-07T21:26:31;102078.25;;;2.14;53.80
11643;BME280;5877;50.930;6.918;2024-01-07T21:31:23;102085.66;;;2.19;53.78
11643;BME280;5877;50.930;6.918;2024-01-07T21:36:20;102093.09;;;2.55;52.97
11643;BME280;5877;50.930;6.918;2024-01-07T21:41:13;102089.88;;;2.63;53.06
11643;BME280;5877;50.930;6.918;2024-01-07T21:46:06;102093.28;;;2.32;53.12
11643;BME280;5877;50.930;6.918;2024-01-07T21:50:59;102088.66;;;2.46;52.70
11643;BME280;5877;50.930;6.918;2024-01-07T21:55:52;102073.06;;;2.78;51.64
11643;BME280;5877;50.930;6.918;2024-01-07T22:00:46;102099.00;;;1.92;53.57
11643;BME280;5877;50.930;6.918;2024-01-07T22:05:38;102075.94;;;1.55;53.46
